createdAt,value
2023-01-15T00:00:01.296Z,93.80
2023-01-15T00:02:29.174Z,94.10
2023-01-15T00:04:57.137Z,94.00
2023-01-15T00:07:24.939Z,94.00
2023-01-15T00:09:53.311Z,94.40
2023-01-15T00:12:21.263Z,94.60
2023-01-15T00:14:50.523Z,94.40
2023-01-15T00:17:18.419Z,94.70
2023-01-15T00:19:47.369Z,94.50
2023-01-15T00:22:15.206Z,94.40
2023-01-15T00:25:00.444Z,94.60
2023-01-15T00:27:41.025Z,94.60
2023-01-15T00:30:14.076Z,94.70
2023-01-15T00:32:43.231Z,94.60
2023-01-15T00:35:14.768Z,94.60
2023-01-15T00:37:43.278Z,94.70
2023-01-15T00:40:13.195Z,94.50
2023-01-15T00:42:41.254Z,94.80
2023-01-15T00:45:12.246Z,94.60
2023-01-15T00:47:42.266Z,95.10
2023-01-15T00:50:12.493Z,94.70
2023-01-15T00:52:40.453Z,94.30
2023-01-15T00:55:09.829Z,94.90
2023-01-15T00:57:37.726Z,94.80
2023-01-15T01:00:06.906Z,95.30
2023-01-15T01:02:36.382Z,95.10
2023-01-15T01:05:04.537Z,95.20
2023-01-15T01:07:32.342Z,95.00
2023-01-15T01:10:00.151Z,95.20
2023-01-15T01:12:28.457Z,95.00
2023-01-15T01:14:56.338Z,95.40
2023-01-15T01:17:25.099Z,95.30
2023-01-15T01:19:54.266Z,95.70
2023-01-15T01:22:22.137Z,95.70
2023-01-15T01:24:50.104Z,95.70
2023-01-15T01:27:19.213Z,95.70
2023-01-15T01:29:47.035Z,95.80
2023-01-15T01:32:14.967Z,95.30
2023-01-15T01:34:42.910Z,95.90
2023-01-15T01:37:12.092Z,95.60
2023-01-15T01:39:40.926Z,96.20
2023-01-15T01:42:13.222Z,96.30
2023-01-15T01:45:09.477Z,96.40
2023-01-15T01:47:37.474Z,96.40
2023-01-15T01:50:10.144Z,96.50
2023-01-15T01:52:44.142Z,96.60
2023-01-15T01:55:13.340Z,96.40
2023-01-15T01:57:41.716Z,96.20
2023-01-15T02:00:11.522Z,96.60
2023-01-15T02:02:45.187Z,96.70
2023-01-15T02:05:20.679Z,96.20
2023-01-15T02:07:50.039Z,96.50
2023-01-15T02:10:18.550Z,96.50
2023-01-15T02:12:52.259Z,96.40
2023-01-15T02:15:27.413Z,96.20
2023-01-15T02:18:02.102Z,96.00
2023-01-15T02:20:36.969Z,96.20
2023-01-15T02:23:24.396Z,96.20
2023-01-15T02:26:08.291Z,95.80
2023-01-15T02:28:39.817Z,96.10
2023-01-15T02:31:13.349Z,95.90
2023-01-15T02:33:48.431Z,95.90
2023-01-15T02:36:21.973Z,96.10
2023-01-15T02:38:54.275Z,95.80
2023-01-15T02:41:27.574Z,96.10
2023-01-15T02:43:58.620Z,96.00
2023-01-15T02:46:32.702Z,96.00
2023-01-15T02:49:07.404Z,96.30
2023-01-15T02:51:42.339Z,96.50
2023-01-15T02:54:14.293Z,96.60
2023-01-15T02:56:45.228Z,97.00
2023-01-15T02:59:22.378Z,96.50
2023-01-15T03:01:56.459Z,97.20
2023-01-15T03:04:32.691Z,97.10
2023-01-15T03:07:07.670Z,97.10
2023-01-15T03:09:37.769Z,97.20
2023-01-15T03:12:10.106Z,97.50
2023-01-15T03:14:50.663Z,97.50
2023-01-15T03:17:23.301Z,97.40
2023-01-15T03:19:57.160Z,98.00
2023-01-15T03:22:29.390Z,98.20
2023-01-15T03:25:02.182Z,98.20
2023-01-15T03:27:33.485Z,98.20
2023-01-15T03:30:08.217Z,98.40
2023-01-15T03:32:36.930Z,98.00
2023-01-15T03:35:10.544Z,98.20
2023-01-15T03:37:44.117Z,98.00
2023-01-15T03:40:13.415Z,98.20
2023-01-15T03:43:11.435Z,97.90
2023-01-15T03:45:43.624Z,97.90
2023-01-15T03:48:19.950Z,98.30
2023-01-15T03:50:52.095Z,98.50
2023-01-15T03:53:24.418Z,98.90
2023-01-15T03:56:03.236Z,98.70
2023-01-15T03:58:40.164Z,98.50
2023-01-15T04:01:16.966Z,98.30
2023-01-15T04:03:48.446Z,98.10
2023-01-15T04:06:17.176Z,97.10
2023-01-15T04:08:47.638Z,97.10
2023-01-15T04:11:24.332Z,97.30
2023-01-15T04:13:55.269Z,97.00
2023-01-15T04:16:34.635Z,97.50
2023-01-15T04:19:02.511Z,97.40
2023-01-15T04:21:30.898Z,97.50
2023-01-15T04:23:58.937Z,97.60
2023-01-15T04:26:26.838Z,97.30
2023-01-15T04:28:54.939Z,96.90
2023-01-15T04:31:22.994Z,97.00
2023-01-15T04:33:52.252Z,97.50
2023-01-15T04:36:20.388Z,97.40
2023-01-15T04:38:48.197Z,97.40
2023-01-15T04:41:33.721Z,97.20
2023-01-15T04:44:07.519Z,97.30
2023-01-15T04:46:36.382Z,96.90
2023-01-15T04:49:07.073Z,97.00
2023-01-15T04:51:35.309Z,96.80
2023-01-15T04:54:04.317Z,96.80
2023-01-15T04:56:32.354Z,96.50
2023-01-15T04:59:01.720Z,96.50
2023-01-15T05:01:29.998Z,96.70
2023-01-15T05:03:58.326Z,96.90
2023-01-15T05:06:27.518Z,94.90
2023-01-15T05:08:55.421Z,94.60
2023-01-15T05:11:23.216Z,94.40
2023-01-15T05:13:51.063Z,94.90
2023-01-15T05:16:20.762Z,94.60
2023-01-15T05:18:49.079Z,94.60
2023-01-15T05:21:21.599Z,94.40
2023-01-15T05:23:52.259Z,94.40
2023-01-15T05:26:20.995Z,94.70
2023-01-15T05:28:49.397Z,94.70
2023-01-15T05:31:19.113Z,94.80
2023-01-15T05:33:48.428Z,94.70
2023-01-15T05:36:17.691Z,95.40
2023-01-15T05:38:45.679Z,95.40
2023-01-15T05:41:34.317Z,94.60
2023-01-15T05:44:04.185Z,93.50
2023-01-15T05:46:33.586Z,93.30
2023-01-15T05:49:02.863Z,93.20
2023-01-15T05:51:30.804Z,93.30
2023-01-15T05:53:59.139Z,93.40
2023-01-15T05:56:28.286Z,93.40
2023-01-15T05:58:56.108Z,93.00
2023-01-15T06:01:24.190Z,93.00
2023-01-15T06:03:53.595Z,92.90
2023-01-15T06:06:21.547Z,93.10
2023-01-15T06:08:49.372Z,93.10
2023-01-15T06:11:17.194Z,93.00
2023-01-15T06:13:46.449Z,93.10
2023-01-15T06:16:14.292Z,93.00
2023-01-15T06:18:43.139Z,93.00
2023-01-15T06:21:13.199Z,92.90
2023-01-15T06:23:42.132Z,92.80
2023-01-15T06:26:13.314Z,92.90
2023-01-15T06:28:41.509Z,92.90
2023-01-15T06:31:12.822Z,92.80
2023-01-15T06:33:40.825Z,92.80
2023-01-15T06:36:11.731Z,92.90
2023-01-15T06:38:39.998Z,92.80
2023-01-15T06:41:30.807Z,92.80
2023-01-15T06:44:16.103Z,92.90
2023-01-15T06:47:04.995Z,92.70
2023-01-15T06:49:33.450Z,92.30
2023-01-15T06:52:01.891Z,92.70
2023-01-15T06:54:29.870Z,92.70
2023-01-15T06:56:57.710Z,92.60
2023-01-15T06:59:25.557Z,92.50
2023-01-15T07:01:54.925Z,92.60
2023-01-15T07:04:22.794Z,92.40
2023-01-15T07:06:50.687Z,92.30
2023-01-15T07:09:18.564Z,92.20
2023-01-15T07:11:52.520Z,92.30
2023-01-15T07:14:21.828Z,92.30
2023-01-15T07:16:50.621Z,92.10
2023-01-15T07:19:20.768Z,92.20
2023-01-15T07:21:48.926Z,92.10
2023-01-15T07:24:16.800Z,87.80
2023-01-15T07:26:45.439Z,89.80
2023-01-15T07:29:13.585Z,90.40
2023-01-15T07:31:41.800Z,90.80
2023-01-15T07:34:09.848Z,91.40
2023-01-15T07:36:39.216Z,91.30
2023-01-15T07:39:08.433Z,90.80
2023-01-15T07:41:53.541Z,90.40
2023-01-15T07:44:39.770Z,90.60
2023-01-15T07:47:35.128Z,90.40
2023-01-15T07:50:03.703Z,90.30
2023-01-15T07:52:32.856Z,91.50
2023-01-15T07:55:01.094Z,90.50
2023-01-15T07:57:29.209Z,90.70
2023-01-15T07:59:57.180Z,90.70
2023-01-15T08:02:25.082Z,90.80
2023-01-15T08:04:52.900Z,90.30
2023-01-15T08:07:20.721Z,90.20
2023-01-15T08:09:49.955Z,89.60
2023-01-15T08:12:35.167Z,90.00
2023-01-15T08:15:15.202Z,87.80
2023-01-15T08:17:44.611Z,88.90
2023-01-15T08:20:15.371Z,88.90
2023-01-15T08:22:44.283Z,89.80
2023-01-15T08:25:19.219Z,89.40
2023-01-15T08:27:47.305Z,90.10
2023-01-15T08:30:17.395Z,90.60
2023-01-15T08:32:45.295Z,86.80
2023-01-15T08:35:13.885Z,90.10
2023-01-15T08:37:42.002Z,88.60
2023-01-15T08:40:11.386Z,88.20
2023-01-15T08:42:41.151Z,88.30
2023-01-15T08:45:10.493Z,86.30
2023-01-15T08:47:38.444Z,87.40
2023-01-15T08:50:08.514Z,86.40
2023-01-15T08:52:37.776Z,88.00
2023-01-15T08:55:06.635Z,89.20
2023-01-15T08:57:34.529Z,87.30
2023-01-15T09:00:03.816Z,86.10
2023-01-15T09:02:31.664Z,87.50
2023-01-15T09:04:59.617Z,86.00
2023-01-15T09:07:27.463Z,87.70
2023-01-15T09:09:55.301Z,86.90
2023-01-15T09:12:26.308Z,84.90
2023-01-15T09:14:59.504Z,86.40
2023-01-15T09:17:32.892Z,86.60
2023-01-15T09:20:00.856Z,86.30
2023-01-15T09:22:30.686Z,84.20
2023-01-15T09:24:58.531Z,86.80
2023-01-15T09:27:26.375Z,84.50
2023-01-15T09:29:54.375Z,84.60
2023-01-15T09:32:22.210Z,85.30
2023-01-15T09:34:51.361Z,83.10
2023-01-15T09:37:19.206Z,82.00
2023-01-15T09:39:47.026Z,80.60
2023-01-15T09:42:29.649Z,80.10
2023-01-15T09:45:22.433Z,80.30
2023-01-15T09:48:18.827Z,83.50
2023-01-15T09:51:02.435Z,80.60
2023-01-15T09:53:46.597Z,82.40
2023-01-15T09:56:22.122Z,81.60
2023-01-15T09:58:51.517Z,80.20
2023-01-15T10:01:22.435Z,81.40
2023-01-15T10:03:55.278Z,80.60
2023-01-15T10:06:27.306Z,80.70
2023-01-15T10:09:04.212Z,81.90
2023-01-15T10:11:57.132Z,80.80
2023-01-15T10:14:39.212Z,80.20
2023-01-15T10:17:20.223Z,79.60
2023-01-15T10:19:48.382Z,80.20
2023-01-15T10:22:43.321Z,80.20
2023-01-15T10:25:17.508Z,81.30
2023-01-15T10:27:48.756Z,80.30
2023-01-15T10:30:22.678Z,80.70
2023-01-15T10:33:02.356Z,84.80
2023-01-15T10:35:42.157Z,80.20
2023-01-15T10:38:19.327Z,81.50
2023-01-15T10:41:07.834Z,80.50
2023-01-15T10:43:46.132Z,82.40
2023-01-15T10:46:15.714Z,81.60
2023-01-15T10:48:46.951Z,83.30
2023-01-15T10:51:17.914Z,81.50
2023-01-15T10:53:52.283Z,83.30
2023-01-15T10:56:29.297Z,85.10
2023-01-15T10:59:05.356Z,83.20
2023-01-15T11:01:33.446Z,82.80
2023-01-15T11:04:01.647Z,86.30
2023-01-15T11:06:32.531Z,83.80
2023-01-15T11:09:11.296Z,82.40
2023-01-15T11:12:01.809Z,82.90
2023-01-15T11:14:51.984Z,83.80
2023-01-15T11:17:38.018Z,84.20
2023-01-15T11:20:13.483Z,85.30
2023-01-15T11:22:43.164Z,83.70
2023-01-15T11:25:14.066Z,84.30
2023-01-15T11:27:42.081Z,81.50
2023-01-15T11:30:29.379Z,83.90
2023-01-15T11:32:59.323Z,84.10
2023-01-15T11:35:27.847Z,85.10
2023-01-15T11:38:06.740Z,84.00
2023-01-15T11:40:36.014Z,84.00
2023-01-15T11:43:21.246Z,85.00
2023-01-15T11:46:07.735Z,84.10
2023-01-15T11:49:01.463Z,84.00
2023-01-15T11:51:29.899Z,84.10
2023-01-15T11:54:04.908Z,84.80
2023-01-15T11:56:36.658Z,83.50
2023-01-15T11:59:10.940Z,84.10
2023-01-15T12:01:43.317Z,82.50
2023-01-15T12:04:30.892Z,82.30
2023-01-15T12:06:59.691Z,83.10
2023-01-15T12:09:48.549Z,83.30
2023-01-15T12:12:27.587Z,82.40
2023-01-15T12:15:23.511Z,82.80
2023-01-15T12:18:28.691Z,84.60
2023-01-15T12:21:05.034Z,82.30
2023-01-15T12:23:54.257Z,82.50
2023-01-15T12:26:28.244Z,83.90
2023-01-15T12:29:05.276Z,82.90
2023-01-15T12:31:38.287Z,82.90
2023-01-15T12:34:16.430Z,82.40
2023-01-15T12:36:49.382Z,82.50
2023-01-15T12:39:22.700Z,84.00
2023-01-15T12:42:13.266Z,83.80
2023-01-15T12:45:04.288Z,84.20
2023-01-15T12:47:39.657Z,85.20
2023-01-15T12:50:24.975Z,82.10
2023-01-15T12:52:58.887Z,85.70
2023-01-15T12:55:30.042Z,84.20
2023-01-15T12:58:01.109Z,81.90
2023-01-15T13:00:36.248Z,81.80
2023-01-15T13:03:18.699Z,82.60
2023-01-15T13:05:50.111Z,82.40
2023-01-15T13:08:25.240Z,83.30
2023-01-15T13:10:53.972Z,80.80
2023-01-15T13:13:24.555Z,81.70
2023-01-15T13:16:17.796Z,82.90
2023-01-15T13:18:57.534Z,82.90
2023-01-15T13:21:27.050Z,83.50
2023-01-15T13:24:20.416Z,81.30
2023-01-15T13:27:13.315Z,82.50
2023-01-15T13:29:52.800Z,81.40
2023-01-15T13:32:24.445Z,82.10
2023-01-15T13:34:57.576Z,82.30
2023-01-15T13:37:28.364Z,80.50
2023-01-15T13:39:59.686Z,83.60
2023-01-15T13:42:36.906Z,82.00
2023-01-15T13:45:27.842Z,82.80
2023-01-15T13:47:59.047Z,81.50
2023-01-15T13:50:31.221Z,82.20
2023-01-15T13:53:06.710Z,82.60
2023-01-15T13:55:36.941Z,83.60
2023-01-15T13:58:22.169Z,82.70
2023-01-15T14:00:50.165Z,81.90
2023-01-15T14:03:27.771Z,82.20
2023-01-15T14:05:56.921Z,80.70
2023-01-15T14:08:28.628Z,82.30
2023-01-15T14:10:57.628Z,82.20
2023-01-15T14:13:48.211Z,82.20
2023-01-15T14:16:24.200Z,82.30
2023-01-15T14:19:22.557Z,82.90
2023-01-15T14:22:00.547Z,82.80
2023-01-15T14:24:51.006Z,82.20
2023-01-15T14:27:33.715Z,82.10
2023-01-15T14:30:21.510Z,82.80
2023-01-15T14:33:01.600Z,82.10
2023-01-15T14:35:37.032Z,81.90
2023-01-15T14:38:07.775Z,85.10
2023-01-15T14:40:40.561Z,84.60
2023-01-15T14:43:16.518Z,83.00
2023-01-15T14:45:47.869Z,80.50
2023-01-15T14:48:38.098Z,79.80
2023-01-15T14:51:13.205Z,79.50
2023-01-15T14:53:44.975Z,79.30
2023-01-15T14:56:20.424Z,80.10
2023-01-15T14:58:55.403Z,79.40
2023-01-15T15:01:33.726Z,79.40
2023-01-15T15:04:08.704Z,79.40
2023-01-15T15:06:46.982Z,79.40
2023-01-15T15:09:18.895Z,79.50
2023-01-15T15:12:07.121Z,80.30
2023-01-15T15:14:39.570Z,79.80
2023-01-15T15:17:18.727Z,79.70
2023-01-15T15:19:52.537Z,79.80
2023-01-15T15:22:23.368Z,79.80
2023-01-15T15:24:55.001Z,79.90
2023-01-15T15:27:24.626Z,79.80
2023-01-15T15:29:52.516Z,80.00
2023-01-15T15:32:24.147Z,80.20
2023-01-15T15:34:53.802Z,80.00
2023-01-15T15:37:26.277Z,80.10
2023-01-15T15:40:01.037Z,80.00
2023-01-15T15:42:50.068Z,80.20
2023-01-15T15:45:38.186Z,80.20
2023-01-15T15:48:32.203Z,80.20
2023-01-15T15:51:00.525Z,80.20
2023-01-15T15:53:29.789Z,80.60
2023-01-15T15:55:59.883Z,80.40
2023-01-15T15:58:32.498Z,80.60
2023-01-15T16:01:00.584Z,80.50
2023-01-15T16:03:32.901Z,80.70
2023-01-15T16:06:03.018Z,80.70
2023-01-15T16:08:33.542Z,80.70
2023-01-15T16:11:05.204Z,80.60
2023-01-15T16:13:37.455Z,80.70
2023-01-15T16:16:08.152Z,80.60
2023-01-15T16:18:40.884Z,80.80
2023-01-15T16:21:09.926Z,81.00
2023-01-15T16:23:39.440Z,81.00
2023-01-15T16:26:15.076Z,80.90
2023-01-15T16:28:47.187Z,81.80
2023-01-15T16:31:18.423Z,81.10
2023-01-15T16:33:47.631Z,81.30
2023-01-15T16:36:15.515Z,81.30
2023-01-15T16:38:50.703Z,81.40
2023-01-15T16:41:20.878Z,81.20
2023-01-15T16:43:54.299Z,81.20
2023-01-15T16:46:24.012Z,81.20
2023-01-15T16:49:25.480Z,81.30
2023-01-15T16:51:54.770Z,81.10
2023-01-15T16:54:44.366Z,81.20
2023-01-15T16:57:32.018Z,81.00
2023-01-15T17:00:02.046Z,80.90
2023-01-15T17:02:41.025Z,81.40
2023-01-15T17:05:18.251Z,81.20
2023-01-15T17:07:50.073Z,81.20
2023-01-15T17:10:25.594Z,81.50
2023-01-15T17:12:56.006Z,81.30
2023-01-15T17:15:45.173Z,81.60
2023-01-15T17:18:26.853Z,81.40
2023-01-15T17:20:55.227Z,81.40
2023-01-15T17:23:27.054Z,81.70
2023-01-15T17:25:57.906Z,81.60
2023-01-15T17:28:25.933Z,81.60
2023-01-15T17:30:58.376Z,81.80
2023-01-15T17:33:26.296Z,81.70
2023-01-15T17:35:56.416Z,81.90
2023-01-15T17:38:24.231Z,81.80
2023-01-15T17:40:52.795Z,81.90
2023-01-15T17:43:21.962Z,81.90
2023-01-15T17:45:50.015Z,81.80
2023-01-15T17:48:18.339Z,82.00
2023-01-15T17:50:46.197Z,82.00
2023-01-15T17:53:14.060Z,81.90
2023-01-15T17:55:59.319Z,82.00
2023-01-15T17:58:46.176Z,82.00
2023-01-15T18:01:36.955Z,81.80
2023-01-15T18:04:23.818Z,81.80
2023-01-15T18:06:55.251Z,81.90
2023-01-15T18:09:24.887Z,81.80
2023-01-15T18:11:52.832Z,82.00
2023-01-15T18:14:22.018Z,82.00
2023-01-15T18:16:49.841Z,81.90
2023-01-15T18:19:17.654Z,82.00
2023-01-15T18:21:45.579Z,82.10
2023-01-15T18:24:13.663Z,82.20
2023-01-15T18:26:42.344Z,82.20
2023-01-15T18:29:11.431Z,82.10
2023-01-15T18:31:41.129Z,82.10
2023-01-15T18:34:09.067Z,82.10
2023-01-15T18:36:36.943Z,82.30
2023-01-15T18:39:07.021Z,82.40
2023-01-15T18:41:53.494Z,82.30
2023-01-15T18:44:40.478Z,82.40
2023-01-15T18:47:12.208Z,82.30
2023-01-15T18:49:42.016Z,82.20
2023-01-15T18:52:28.027Z,82.50
2023-01-15T18:54:55.836Z,82.40
2023-01-15T18:57:24.079Z,82.40
2023-01-15T18:59:52.621Z,82.50
2023-01-15T19:02:22.598Z,82.50
2023-01-15T19:04:50.515Z,82.40
2023-01-15T19:07:18.551Z,82.60
2023-01-15T19:09:46.379Z,82.60
2023-01-15T19:12:16.813Z,82.70
2023-01-15T19:15:02.254Z,82.70
2023-01-15T19:17:48.749Z,82.80
2023-01-15T19:20:18.462Z,82.60
2023-01-15T19:23:05.259Z,82.70
2023-01-15T19:25:38.358Z,82.80
2023-01-15T19:28:07.790Z,82.70
2023-01-15T19:30:38.447Z,82.70
2023-01-15T19:33:09.100Z,82.70
2023-01-15T19:35:37.711Z,82.80
2023-01-15T19:38:08.013Z,82.80
2023-01-15T19:40:40.307Z,82.90
2023-01-15T19:43:25.812Z,83.00
2023-01-15T19:46:11.315Z,83.00
2023-01-15T19:48:58.126Z,82.90
2023-01-15T19:51:47.600Z,82.90
2023-01-15T19:54:35.869Z,83.00
2023-01-15T19:57:03.948Z,83.10
2023-01-15T19:59:31.796Z,83.90
2023-01-15T20:02:02.214Z,83.30
2023-01-15T20:04:31.897Z,83.40
2023-01-15T20:06:59.720Z,83.30
2023-01-15T20:09:27.602Z,83.60
2023-01-15T20:12:13.388Z,83.50
2023-01-15T20:14:41.215Z,83.50
2023-01-15T20:17:11.123Z,83.50
2023-01-15T20:19:40.300Z,83.60
2023-01-15T20:22:08.161Z,83.50
2023-01-15T20:24:36.000Z,83.70
2023-01-15T20:27:03.861Z,83.70
2023-01-15T20:29:31.775Z,83.70
2023-01-15T20:31:59.666Z,83.70
2023-01-15T20:34:27.808Z,83.80
2023-01-15T20:36:57.055Z,83.90
2023-01-15T20:39:24.888Z,83.70
2023-01-15T20:42:10.440Z,83.80
2023-01-15T20:44:56.502Z,83.90
2023-01-15T20:47:43.541Z,83.90
2023-01-15T20:50:15.534Z,83.70
2023-01-15T20:52:48.403Z,83.80
2023-01-15T20:55:17.368Z,83.60
2023-01-15T20:57:46.082Z,83.90
2023-01-15T21:00:17.383Z,84.00
2023-01-15T21:02:45.796Z,83.90
2023-01-15T21:05:14.201Z,84.00
2023-01-15T21:07:42.185Z,84.10
2023-01-15T21:10:13.755Z,84.10
2023-01-15T21:12:41.806Z,83.90
2023-01-15T21:15:10.921Z,84.00
2023-01-15T21:17:39.347Z,83.80
2023-01-15T21:20:08.300Z,83.90
2023-01-15T21:22:36.411Z,84.00
2023-01-15T21:25:04.604Z,84.10
2023-01-15T21:27:36.019Z,84.10
2023-01-15T21:30:04.586Z,83.90
2023-01-15T21:32:32.411Z,84.10
2023-01-15T21:35:00.226Z,84.10
2023-01-15T21:37:28.211Z,84.10
2023-01-15T21:39:56.006Z,84.30
2023-01-15T21:42:41.544Z,84.30
2023-01-15T21:45:12.094Z,84.20
2023-01-15T21:47:41.401Z,84.00
2023-01-15T21:50:10.373Z,84.20
2023-01-15T21:52:38.291Z,84.10
2023-01-15T21:55:07.296Z,84.30
2023-01-15T21:57:35.170Z,84.20
2023-01-15T22:00:03.079Z,84.30
2023-01-15T22:02:34.455Z,84.30
2023-01-15T22:05:02.392Z,84.20
2023-01-15T22:07:30.237Z,84.20
2023-01-15T22:09:58.102Z,84.20
2023-01-15T22:12:25.912Z,84.20
2023-01-15T22:14:55.325Z,84.30
2023-01-15T22:17:23.172Z,84.40
2023-01-15T22:19:52.411Z,84.30
2023-01-15T22:22:20.402Z,84.40
2023-01-15T22:24:48.245Z,84.30
2023-01-15T22:27:17.105Z,84.30
2023-01-15T22:29:44.959Z,84.90
2023-01-15T22:32:16.012Z,84.40
2023-01-15T22:34:44.396Z,84.30
2023-01-15T22:37:15.654Z,84.40
2023-01-15T22:39:43.484Z,84.30
2023-01-15T22:42:28.318Z,84.40
2023-01-15T22:45:00.239Z,84.30
2023-01-15T22:47:29.841Z,84.30
2023-01-15T22:49:57.761Z,84.50
2023-01-15T22:52:27.284Z,84.50
2023-01-15T22:54:55.363Z,84.40
2023-01-15T22:57:23.415Z,84.50
2023-01-15T22:59:51.357Z,84.50
2023-01-15T23:02:39.320Z,84.60
2023-01-15T23:05:08.009Z,84.50
2023-01-15T23:07:39.337Z,84.50
2023-01-15T23:10:11.560Z,84.40
2023-01-15T23:12:40.249Z,84.50
2023-01-15T23:15:09.728Z,84.60
2023-01-15T23:17:37.563Z,84.60
2023-01-15T23:20:06.347Z,84.60
2023-01-15T23:22:34.168Z,84.60
2023-01-15T23:25:03.931Z,85.30
2023-01-15T23:27:32.177Z,84.50
2023-01-15T23:29:59.983Z,84.60
2023-01-15T23:32:27.843Z,84.50
2023-01-15T23:34:55.642Z,84.60
2023-01-15T23:37:23.442Z,84.60
2023-01-15T23:39:51.241Z,84.70
2023-01-15T23:42:44.772Z,84.70
2023-01-15T23:45:30.459Z,84.50
2023-01-15T23:47:58.354Z,84.60
2023-01-15T23:50:26.203Z,84.70
2023-01-15T23:52:54.039Z,84.60
2023-01-15T23:55:21.869Z,84.80
2023-01-15T23:57:51.074Z,84.80
